Time;durP1;ratioP1;P1;durP2;ratioP2;P2;SDS_P1;SDS_P2;PMS_P1;PMS_P2;Temp;Humidity;BMP_temperature;BMP_pressure;BME280_temperature;BME280_humidity;BME280_pressure;Samples;Min_cycle;Max_cycle;Signal;HPM_P1;HPM_P2
2021/05/18 00:02:07;;;;;;;1.50;1.40;;;9.50;99.90;;;;;;5013050;28;20064;-80
2021/05/18 00:04:32;;;;;;;2.35;1.60;;;9.50;99.90;;;;;;5019500;28;20049;-80
2021/05/18 00:06:58;;;;;;;1.30;1.20;;;9.50;99.90;;;;;;5004697;28;20038;-80
2021/05/18 00:12:08;;;;;;;1.58;1.10;;;9.40;99.90;;;;;;5019828;28;20183;-80
2021/05/18 00:14:35;;;;;;;1.83;1.10;;;9.40;99.90;;;;;;5000011;28;20026;-80
2021/05/18 00:17:03;;;;;;;1.73;1.60;;;9.40;99.90;;;;;;4991023;28;20026;-80
2021/05/18 00:19:29;;;;;;;2.10;1.30;;;9.40;99.90;;;;;;5014923;28;20034;-81
2021/05/18 00:21:54;;;;;;;5.15;1.40;;;9.40;99.90;;;;;;5033297;28;20044;-80
2021/05/18 00:24:20;;;;;;;1.35;1.25;;;9.40;99.90;;;;;;5018005;28;20025;-81
2021/05/18 00:26:47;;;;;;;1.58;1.40;;;9.50;99.90;;;;;;5015533;28;20041;-79
2021/05/18 00:29:14;;;;;;;1.85;1.35;;;9.50;99.90;;;;;;5032080;28;20052;-80
2021/05/18 00:31:39;;;;;;;1.92;1.83;;;9.50;99.90;;;;;;5032734;28;20052;-80
2021/05/18 00:34:05;;;;;;;2.55;2.22;;;9.50;99.90;;;;;;5032211;28;20116;-79
2021/05/18 00:36:31;;;;;;;1.73;1.63;;;9.50;99.90;;;;;;5024908;28;20071;-80
2021/05/18 00:38:57;;;;;;;2.60;1.67;;;9.50;99.90;;;;;;5037295;28;20036;-81
2021/05/18 00:41:23;;;;;;;2.33;2.13;;;9.50;99.90;;;;;;5040577;28;20029;-81
2021/05/18 00:43:49;;;;;;;2.97;2.47;;;9.50;99.90;;;;;;5015686;28;20041;-81
2021/05/18 00:46:14;;;;;;;3.05;2.78;;;9.50;99.90;;;;;;5040496;28;20029;-82
2021/05/18 00:48:56;;;;;;;2.50;2.30;;;9.50;99.90;;;;;;5029333;28;20394;-82
2021/05/18 00:51:22;;;;;;;2.10;1.90;;;9.50;99.90;;;;;;4988058;28;20037;-81
2021/05/18 00:53:48;;;;;;;1.85;1.75;;;9.40;99.90;;;;;;5015929;28;20044;-80
2021/05/18 00:59:09;;;;;;;1.63;1.52;;;9.40;99.90;;;;;;5004409;28;20049;-79
2021/05/18 01:01:34;;;;;;;2.63;2.00;;;9.40;99.90;;;;;;5037765;28;20036;-80
2021/05/18 01:04:01;;;;;;;3.00;1.60;;;9.40;99.90;;;;;;5029126;28;20033;-82
2021/05/18 01:06:30;;;;;;;2.40;1.60;;;9.40;99.90;;;;;;5015549;28;20069;-80
2021/05/18 01:09:08;;;;;;;2.20;1.90;;;9.50;99.90;;;;;;5031751;28;20022;-80
2021/05/18 01:11:34;;;;;;;2.60;1.80;;;9.40;99.90;;;;;;5032313;28;20021;-81
2021/05/18 01:14:07;;;;;;;1.98;1.88;;;9.40;99.90;;;;;;5032538;28;20030;-80
2021/05/18 01:16:37;;;;;;;3.33;1.70;;;9.40;99.90;;;;;;5023060;28;20033;-80
2021/05/18 01:19:05;;;;;;;2.50;1.40;;;9.40;99.90;;;;;;5018806;28;20293;-79
2021/05/18 01:21:31;;;;;;;1.98;1.77;;;9.40;99.90;;;;;;5036269;28;20046;-81
2021/05/18 01:23:58;;;;;;;1.88;1.77;;;9.40;99.90;;;;;;5018536;28;20076;-81
2021/05/18 01:26:25;;;;;;;1.70;1.60;;;9.40;99.90;;;;;;5032049;28;20056;-80
2021/05/18 01:28:51;;;;;;;1.73;1.60;;;9.40;99.90;;;;;;5021105;28;20029;-81
2021/05/18 01:31:21;;;;;;;3.53;1.60;;;9.40;99.90;;;;;;5019651;28;20036;-82
2021/05/18 01:33:47;;;;;;;3.35;1.70;;;9.50;99.90;;;;;;5044596;28;20039;-80
2021/05/18 01:36:20;;;;;;;1.60;1.50;;;9.40;99.90;;;;;;5024399;28;20029;-81
2021/05/18 01:44:08;;;;;;;1.92;1.73;;;9.50;99.90;;;;;;5010583;28;20104;-81
2021/05/18 01:46:35;;;;;;;3.83;1.95;;;9.50;99.90;;;;;;5028288;28;20108;-79
2021/05/18 01:49:04;;;;;;;2.65;2.35;;;9.40;99.90;;;;;;5021906;28;20026;-81
2021/05/18 01:51:46;;;;;;;2.10;1.90;;;9.40;99.90;;;;;;5017378;28;20067;-80
2021/05/18 01:54:16;;;;;;;2.70;2.35;;;9.30;99.90;;;;;;5011944;28;20107;-80
2021/05/18 01:59:14;;;;;;;2.45;1.95;;;9.30;99.90;;;;;;5043960;28;20040;-81
2021/05/18 02:01:43;;;;;;;3.05;2.28;;;9.30;99.90;;;;;;5026630;28;20021;-80
2021/05/18 02:04:21;;;;;;;3.45;2.50;;;9.30;99.90;;;;;;5022737;28;20039;-81
2021/05/18 02:06:47;;;;;;;2.30;1.92;;;9.30;99.90;;;;;;5005666;28;20033;-81
2021/05/18 02:09:16;;;;;;;1.98;1.70;;;9.30;99.90;;;;;;5026878;28;20029;-81
2021/05/18 02:11:45;;;;;;;3.65;2.00;;;9.30;99.90;;;;;;5020092;28;20026;-81
2021/05/18 02:14:19;;;;;;;3.83;1.67;;;9.30;99.90;;;;;;4991500;28;20097;-81
2021/05/18 02:16:47;;;;;;;3.10;1.90;;;9.30;99.90;;;;;;5027100;28;20025;-81
2021/05/18 02:19:31;;;;;;;3.10;1.98;;;9.30;99.90;;;;;;5044174;28;20057;-80
2021/05/18 02:24:49;;;;;;;3.17;1.85;;;9.30;99.90;;;;;;5029924;28;20051;-81
2021/05/18 02:27:28;;;;;;;2.42;1.70;;;9.30;99.90;;;;;;5037351;28;20034;-81
2021/05/18 02:29:55;;;;;;;2.80;1.60;;;9.30;99.90;;;;;;5021009;28;20021;-80
2021/05/18 02:32:23;;;;;;;2.35;1.90;;;9.30;99.90;;;;;;5024292;28;20128;-80
2021/05/18 02:35:00;;;;;;;1.85;1.65;;;9.30;99.90;;;;;;5029571;28;20021;-81
2021/05/18 02:37:26;;;;;;;1.85;1.75;;;9.40;99.90;;;;;;5034942;28;20041;-80
2021/05/18 02:39:53;;;;;;;1.77;1.67;;;9.40;99.90;;;;;;5017675;28;20068;-81
2021/05/18 02:42:19;;;;;;;2.88;2.30;;;9.40;99.90;;;;;;5027137;28;20036;-82
2021/05/18 02:44:50;;;;;;;3.50;3.00;;;9.30;99.90;;;;;;5045627;28;20020;-80
2021/05/18 02:50:07;;;;;;;7.15;2.92;;;9.30;99.90;;;;;;5041733;28;20121;-81
2021/05/18 02:52:36;;;;;;;3.85;3.10;;;9.30;99.90;;;;;;5045029;28;20030;-81
2021/05/18 02:55:02;;;;;;;7.22;2.83;;;9.20;99.90;;;;;;5026371;28;20048;-81
2021/05/18 02:57:38;;;;;;;4.65;3.22;;;9.20;99.90;;;;;;5061453;28;20033;-80
2021/05/18 03:00:17;;;;;;;3.72;2.70;;;9.10;99.90;;;;;;5046837;28;20032;-80
2021/05/18 03:02:42;;;;;;;3.20;2.90;;;9.00;99.90;;;;;;5026932;28;20029;-81
2021/05/18 03:05:09;;;;;;;3.45;3.13;;;9.00;99.90;;;;;;5047102;28;20417;-82
2021/05/18 03:07:39;;;;;;;5.40;3.22;;;8.90;99.90;;;;;;5037428;28;20037;-81
2021/05/18 03:10:06;;;;;;;4.28;2.88;;;8.90;99.90;;;;;;5040455;28;20025;-81
2021/05/18 03:12:32;;;;;;;3.58;3.03;;;8.80;99.90;;;;;;5043100;28;20063;-82
2021/05/18 03:14:58;;;;;;;3.22;2.92;;;8.80;99.90;;;;;;5029235;28;20099;-82
2021/05/18 03:17:25;;;;;;;5.78;3.35;;;8.80;99.90;;;;;;5037672;28;20186;-81
2021/05/18 03:19:51;;;;;;;3.97;3.58;;;8.80;99.90;;;;;;5033023;28;20033;-82
2021/05/18 03:22:16;;;;;;;3.33;3.03;;;8.80;99.90;;;;;;5009818;28;20613;-80
2021/05/18 03:24:42;;;;;;;4.07;3.15;;;8.70;99.90;;;;;;5019572;28;20029;-81
2021/05/18 03:27:11;;;;;;;3.05;2.75;;;8.60;99.90;;;;;;5027301;28;20068;-81
2021/05/18 03:29:37;;;;;;;4.22;3.00;;;8.60;99.90;;;;;;5016641;28;20517;-81
2021/05/18 03:34:50;;;;;;;3.13;2.83;;;8.50;99.90;;;;;;5041305;28;20508;-81
2021/05/18 03:37:30;;;;;;;2.95;2.63;;;8.50;99.90;;;;;;5053576;28;20039;-79
2021/05/18 03:40:01;;;;;;;2.97;2.67;;;8.50;99.90;;;;;;5031914;28;20029;-81
2021/05/18 03:45:04;;;;;;;3.97;2.78;;;8.40;99.90;;;;;;5010889;28;20521;-82
2021/05/18 03:53:26;;;;;;;;;;;8.40;99.90;;;;;;5032156;28;20068;-81
2021/05/18 03:58:42;;;;;;;4.22;3.30;;;8.40;99.90;;;;;;5032273;28;20056;-80
2021/05/18 04:17:14;;;;;;;3.13;2.83;;;8.80;99.90;;;;;;5053795;28;20029;-81
2021/05/18 04:19:58;;;;;;;4.00;3.00;;;8.80;99.90;;;;;;5048437;28;20033;-81
2021/05/18 04:22:33;;;;;;;5.05;3.17;;;8.80;99.90;;;;;;5041772;28;20320;-82
2021/05/18 04:39:31;;;;;;;4.13;3.72;;;9.20;99.90;;;;;;5070442;28;20116;-81
2021/05/18 04:52:10;;;;;;;9.68;3.90;;;9.50;99.90;;;;;;5040398;28;20029;-82
2021/05/18 05:00:05;;;;;;;4.47;3.72;;;9.60;99.90;;;;;;5045521;28;20515;-81
2021/05/18 05:08:06;;;;;;;5.50;4.13;;;9.70;99.90;;;;;;5040084;28;20021;-80
2021/05/18 05:15:36;;;;;;;6.38;3.15;;;9.60;99.90;;;;;;5024642;28;20052;-82
2021/05/18 05:18:02;;;;;;;3.97;3.55;;;9.60;99.90;;;;;;5050996;28;20029;-81
2021/05/18 05:20:29;;;;;;;6.97;3.78;;;9.60;99.90;;;;;;5040884;28;20092;-81
2021/05/18 05:22:55;;;;;;;4.32;3.78;;;9.60;99.90;;;;;;5006945;28;20040;-79
2021/05/18 05:25:21;;;;;;;4.78;3.80;;;9.50;99.90;;;;;;5020962;28;20458;-81
2021/05/18 05:27:46;;;;;;;4.20;3.35;;;9.50;99.90;;;;;;5022607;28;20037;-82
2021/05/18 05:30:13;;;;;;;4.40;3.85;;;9.60;99.90;;;;;;5023146;28;20250;-81
2021/05/18 05:32:38;;;;;;;4.57;3.45;;;9.60;99.90;;;;;;4989154;28;20029;-81
2021/05/18 05:35:05;;;;;;;6.15;3.80;;;9.60;99.90;;;;;;5022667;28;20052;-80
2021/05/18 05:37:31;;;;;;;9.25;3.72;;;9.70;99.90;;;;;;5042596;28;20060;-80
2021/05/18 05:39:57;;;;;;;5.68;4.60;;;9.80;99.90;;;;;;5018630;28;20022;-81
2021/05/18 05:42:23;;;;;;;5.25;3.75;;;9.80;99.90;;;;;;4989467;28;20033;-81
2021/05/18 05:44:49;;;;;;;5.63;4.20;;;9.80;99.90;;;;;;5023646;28;20033;-80
2021/05/18 05:47:15;;;;;;;7.72;3.78;;;9.90;99.90;;;;;;5038491;28;20026;-81
2021/05/18 05:49:41;;;;;;;4.35;3.53;;;10.00;99.90;;;;;;5035923;28;20022;-80
2021/05/18 05:52:09;;;;;;;5.55;3.95;;;10.10;99.90;;;;;;5001469;28;20037;-80
2021/05/18 05:54:35;;;;;;;5.22;4.38;;;10.10;99.90;;;;;;5037950;28;20033;-80
2021/05/18 05:57:00;;;;;;;4.47;3.53;;;10.10;99.90;;;;;;5023258;28;20025;-80
2021/05/18 05:59:26;;;;;;;3.90;3.33;;;10.10;99.90;;;;;;5003161;28;20051;-81
2021/05/18 06:01:52;;;;;;;4.63;3.30;;;10.10;99.90;;;;;;5038054;28;20052;-80
2021/05/18 06:04:18;;;;;;;3.97;3.40;;;10.10;99.90;;;;;;5021505;28;20068;-81
2021/05/18 06:06:43;;;;;;;5.15;3.38;;;10.10;99.90;;;;;;4986852;28;20653;-81
2021/05/18 06:09:10;;;;;;;4.28;3.55;;;10.00;99.90;;;;;;5053729;28;20396;-79
2021/05/18 06:14:38;;;;;;;5.97;2.97;;;10.00;99.90;;;;;;5030475;28;20033;-78
2021/05/18 06:17:37;;;;;;;5.03;3.60;;;10.00;99.90;;;;;;5027504;28;20044;-81
2021/05/18 06:34:35;;;;;;;6.28;4.13;;;10.00;99.90;;;;;;5024954;28;20041;-80
2021/05/18 06:43:08;;;;;;;4.18;3.70;;;10.20;99.90;;;;;;5050680;28;20083;-82
2021/05/18 06:47:50;;;;;;;5.28;4.10;;;10.20;99.90;;;;;;5039280;28;19909;-81
2021/05/18 06:52:44;;;;;;;6.75;3.78;;;10.50;99.90;;;;;;5043343;28;20037;-81
2021/05/18 06:55:15;;;;;;;6.40;3.75;;;10.60;99.90;;;;;;5070237;23;20098;-81
2021/05/18 06:57:45;;;;;;;4.88;3.95;;;10.70;99.90;;;;;;5085869;28;20031;-81
2021/05/18 07:00:12;;;;;;;4.13;3.25;;;10.80;99.90;;;;;;5040714;28;20119;-81
2021/05/18 07:02:40;;;;;;;5.13;3.00;;;10.90;99.90;;;;;;5077242;28;20047;-81
2021/05/18 07:05:13;;;;;;;7.15;3.65;;;10.80;99.90;;;;;;5075062;28;20080;-81
2021/05/18 07:07:39;;;;;;;3.90;2.70;;;10.80;99.90;;;;;;5059161;28;20027;-81
2021/05/18 07:10:05;;;;;;;2.80;2.60;;;10.70;99.90;;;;;;5068507;28;20025;-81
2021/05/18 07:12:31;;;;;;;5.00;2.88;;;10.60;99.90;;;;;;5042883;28;20040;-81
2021/05/18 07:14:59;;;;;;;2.85;2.47;;;10.60;99.90;;;;;;5058265;28;20032;-81
2021/05/18 07:17:25;;;;;;;3.28;2.70;;;10.50;99.90;;;;;;5052504;28;20070;-82
2021/05/18 07:19:51;;;;;;;3.33;3.03;;;10.50;99.90;;;;;;5058768;28;20097;-81
2021/05/18 07:22:17;;;;;;;4.15;2.72;;;10.50;99.90;;;;;;5016782;28;20412;-81
2021/05/18 07:24:43;;;;;;;4.13;3.20;;;10.60;99.90;;;;;;5059627;28;20026;-81
2021/05/18 07:27:09;;;;;;;4.55;2.85;;;10.70;99.90;;;;;;5074889;28;20450;-80
2021/05/18 07:29:35;;;;;;;3.22;2.67;;;10.80;99.90;;;;;;5065769;28;20054;-80
2021/05/18 07:32:01;;;;;;;3.33;2.65;;;10.90;99.90;;;;;;5061170;28;20023;-80
2021/05/18 07:34:27;;;;;;;4.60;3.70;;;11.00;99.90;;;;;;5078254;28;21406;-81
2021/05/18 07:36:53;;;;;;;3.92;2.25;;;11.10;99.90;;;;;;5056367;28;20032;-81
2021/05/18 07:39:19;;;;;;;2.47;2.28;;;11.10;99.90;;;;;;5041371;28;20032;-81
2021/05/18 07:41:44;;;;;;;4.35;2.20;;;11.10;99.90;;;;;;5053231;28;20031;-81
2021/05/18 07:44:10;;;;;;;3.38;2.22;;;11.10;99.90;;;;;;5068098;28;20028;-80
2021/05/18 07:46:41;;;;;;;1.90;1.80;;;11.20;99.90;;;;;;5075325;28;20086;-80
2021/05/18 07:49:11;;;;;;;2.22;2.00;;;11.20;99.90;;;;;;5051673;28;20029;-80
2021/05/18 07:51:54;;;;;;;2.47;1.60;;;11.30;99.90;;;;;;5051851;28;20115;-80
2021/05/18 08:00:05;;;;;;;2.30;1.25;;;11.40;99.90;;;;;;5079741;28;20046;-81
2021/05/18 08:05:29;;;;;;;1.80;1.65;;;11.50;99.90;;;;;;5044464;28;20502;-82
2021/05/18 08:07:55;;;;;;;2.75;1.52;;;11.60;99.90;;;;;;5049681;28;20032;-81
2021/05/18 08:12:56;;;;;;;1.95;1.85;;;12.20;99.90;;;;;;5052545;28;20115;-81
2021/05/18 08:48:39;;;;;;;0.50;0.50;;;14.50;99.90;;;;;;5065361;28;20102;-79
2021/05/18 09:44:16;;;;;;;0.82;0.50;;;14.40;99.90;;;;;;5018573;28;20034;-80
2021/05/18 09:48:38;;;;;;;0.80;0.47;;;15.10;99.90;;;;;;5045998;28;20036;-80
2021/05/18 10:24:43;;;;;;;1.63;0.60;;;15.20;99.90;;;;;;5048183;28;20076;-78
2021/05/18 10:34:28;;;;;;;1.05;0.30;;;15.50;99.90;;;;;;5058622;28;20028;-76
2021/05/18 10:36:54;;;;;;;1.00;0.60;;;15.50;99.90;;;;;;5067297;28;20538;-77
2021/05/18 10:39:29;;;;;;;1.58;0.52;;;15.50;99.90;;;;;;5059764;28;20025;-80
2021/05/18 10:41:55;;;;;;;0.43;0.40;;;15.80;99.90;;;;;;5067320;28;20032;-79
2021/05/18 10:44:22;;;;;;;1.90;0.40;;;16.00;99.90;;;;;;5067580;28;20036;-79
2021/05/18 10:46:57;;;;;;;1.60;0.45;;;16.00;99.90;;;;;;5053860;28;20039;-79
2021/05/18 10:49:53;;;;;;;0.47;0.47;;;16.00;99.90;;;;;;5030268;28;20077;-78
2021/05/18 10:52:36;;;;;;;0.93;0.57;;;15.90;99.90;;;;;;5050427;28;20032;-79
2021/05/18 10:55:02;;;;;;;1.02;0.30;;;15.60;99.90;;;;;;5058990;28;20733;-79
2021/05/18 10:57:29;;;;;;;0.98;0.40;;;15.40;99.90;;;;;;5065846;28;20067;-77
2021/05/18 10:59:57;;;;;;;0.93;0.38;;;15.20;99.90;;;;;;5053340;28;20113;-81
2021/05/18 11:02:38;;;;;;;0.30;0.30;;;15.00;99.90;;;;;;5087150;28;20027;-82
2021/05/18 11:05:12;;;;;;;2.70;0.50;;;14.70;99.90;;;;;;5074163;28;20077;-82
2021/05/18 11:07:40;;;;;;;0.93;0.70;;;14.60;99.90;;;;;;5069582;28;20454;-79
2021/05/18 11:10:17;;;;;;;0.63;0.50;;;14.30;99.90;;;;;;5052929;28;20114;-79
2021/05/18 11:12:48;;;;;;;0.68;0.30;;;14.10;99.90;;;;;;5071738;28;20100;-78
2021/05/18 11:15:19;;;;;;;2.22;0.55;;;14.00;99.90;;;;;;5075202;28;20085;-80
2021/05/18 11:17:47;;;;;;;0.85;0.35;;;14.00;99.90;;;;;;5047085;28;20032;-83
2021/05/18 11:26:03;;;;;;;1.20;0.40;;;13.80;99.90;;;;;;5054555;28;20472;-78
2021/05/18 11:28:48;;;;;;;0.55;0.50;;;13.90;99.90;;;;;;5026239;28;20035;-76
2021/05/18 11:31:24;;;;;;;1.25;0.75;;;14.00;99.90;;;;;;5074813;28;20115;-77
2021/05/18 11:33:52;;;;;;;0.85;0.60;;;14.10;99.90;;;;;;5079953;28;20044;-79
2021/05/18 11:36:25;;;;;;;0.60;0.60;;;14.20;99.90;;;;;;5078422;28;20024;-82
2021/05/18 11:38:55;;;;;;;0.70;0.70;;;14.10;99.90;;;;;;5064310;28;20557;-81
2021/05/18 11:41:26;;;;;;;1.55;0.90;;;14.10;99.90;;;;;;5066294;28;20024;-78
2021/05/18 11:43:54;;;;;;;0.88;0.65;;;14.10;99.90;;;;;;5066150;28;20038;-78
2021/05/18 11:46:20;;;;;;;0.70;0.70;;;14.10;99.90;;;;;;5045332;28;20085;-78
2021/05/18 11:49:03;;;;;;;1.67;0.75;;;14.20;99.90;;;;;;5064008;28;20659;-79
2021/05/18 11:51:39;;;;;;;0.70;0.70;;;14.40;99.90;;;;;;5051447;28;20032;-76
2021/05/18 11:54:06;;;;;;;0.98;0.77;;;14.60;99.90;;;;;;5072215;28;20037;-79
2021/05/18 11:56:34;;;;;;;0.98;0.68;;;14.80;99.90;;;;;;5055890;28;20046;-79
2021/05/18 11:59:21;;;;;;;2.92;0.80;;;15.00;99.90;;;;;;5056686;28;20410;-80
2021/05/18 12:01:52;;;;;;;4.88;1.05;;;15.00;99.90;;;;;;5040738;28;20024;-82
2021/05/18 12:04:20;;;;;;;1.45;0.80;;;14.80;99.90;;;;;;5059141;28;20042;-79
2021/05/18 12:07:11;;;;;;;2.13;0.68;;;14.60;99.90;;;;;;5066420;28;20483;-76
2021/05/18 12:09:43;;;;;;;0.45;0.45;;;14.40;99.90;;;;;;5069126;28;20020;-78
2021/05/18 12:12:15;;;;;;;0.80;0.40;;;14.30;99.90;;;;;;5046437;28;20024;-78
2021/05/18 12:14:49;;;;;;;0.88;0.47;;;14.10;99.90;;;;;;5078432;28;20024;-79
2021/05/18 12:17:27;;;;;;;0.50;0.50;;;14.10;99.90;;;;;;5050075;28;20511;-79
2021/05/18 12:19:53;;;;;;;1.33;0.35;;;14.00;99.90;;;;;;5078418;28;20147;-79
2021/05/18 12:22:18;;;;;;;0.85;0.30;;;14.00;99.90;;;;;;5070185;28;20107;-79
2021/05/18 12:24:44;;;;;;;0.40;0.40;;;13.90;99.90;;;;;;5049345;28;20135;-78
2021/05/18 12:27:11;;;;;;;0.40;0.40;;;14.00;99.90;;;;;;5053024;28;20032;-79
2021/05/18 12:29:50;;;;;;;2.05;0.70;;;14.30;99.90;;;;;;5087581;28;20071;-78
2021/05/18 12:32:24;;;;;;;0.60;0.47;;;14.40;99.90;;;;;;5082583;28;20028;-78
2021/05/18 12:35:05;;;;;;;2.08;0.52;;;14.60;99.90;;;;;;5060962;28;20044;-76
2021/05/18 12:37:43;;;;;;;1.35;0.40;;;14.90;99.90;;;;;;5079970;28;20111;-78
2021/05/18 12:40:15;;;;;;;0.77;0.60;;;15.30;99.90;;;;;;5075843;28;20035;-79
2021/05/18 12:42:45;;;;;;;1.20;0.90;;;15.70;99.90;;;;;;5054013;28;20077;-80
2021/05/18 12:45:21;;;;;;;0.90;0.60;;;16.10;99.90;;;;;;5067940;28;20104;-79
2021/05/18 12:47:58;;;;;;;0.57;0.50;;;16.50;99.90;;;;;;5062017;28;20387;-79
2021/05/18 12:50:35;;;;;;;0.60;0.60;;;16.70;99.90;;;;;;5057431;28;20059;-79
2021/05/18 12:53:28;;;;;;;1.33;0.68;;;17.10;99.90;;;;;;5074714;28;20535;-83
2021/05/18 12:55:54;;;;;;;0.85;0.73;;;17.40;99.90;;;;;;5084720;28;20042;-79
2021/05/18 12:58:34;;;;;;;1.20;0.63;;;17.80;99.90;;;;;;5050121;28;20059;-80
2021/05/18 13:01:11;;;;;;;0.68;0.60;;;18.30;99.90;;;;;;5045553;28;20653;-79
2021/05/18 13:03:38;;;;;;;0.70;0.68;;;18.10;99.90;;;;;;5061140;28;20121;-80
2021/05/18 13:06:04;;;;;;;2.22;0.60;;;18.30;99.90;;;;;;5080867;28;20070;-81
2021/05/18 13:08:35;;;;;;;0.50;0.50;;;18.30;99.90;;;;;;5065119;28;20039;-77
2021/05/18 13:11:18;;;;;;;0.45;0.45;;;18.40;99.90;;;;;;5062735;28;20029;-78
2021/05/18 13:13:48;;;;;;;0.50;0.50;;;18.60;99.90;;;;;;5068559;28;20119;-78
2021/05/18 13:16:19;;;;;;;0.38;0.35;;;18.80;99.90;;;;;;5068726;28;20702;-78
2021/05/18 13:19:05;;;;;;;0.45;0.45;;;18.90;99.90;;;;;;5046367;28;20028;-80
2021/05/18 13:21:45;;;;;;;0.40;0.40;;;19.10;99.90;;;;;;5049519;28;20036;-80
2021/05/18 13:26:47;;;;;;;1.08;0.50;;;19.10;99.90;;;;;;5065495;28;20031;-80
2021/05/18 13:29:16;;;;;;;0.68;0.50;;;19.10;99.90;;;;;;5048685;28;20021;-79
2021/05/18 13:31:43;;;;;;;1.23;0.63;;;19.30;98.80;;;;;;5039213;28;20034;-79
2021/05/18 13:34:09;;;;;;;0.70;0.50;;;18.90;99.90;;;;;;5069745;28;20012;-79
2021/05/18 13:36:36;;;;;;;1.10;0.50;;;18.70;97.70;;;;;;5063320;28;20051;-79
2021/05/18 13:39:13;;;;;;;0.45;0.45;;;18.50;97.20;;;;;;5055297;28;20059;-79
2021/05/18 13:41:39;;;;;;;0.73;0.60;;;18.50;99.90;;;;;;5052774;28;20480;-78
2021/05/18 13:44:06;;;;;;;0.55;0.55;;;18.50;96.40;;;;;;5067393;28;20031;-78
2021/05/18 13:46:33;;;;;;;0.50;0.50;;;18.50;98.30;;;;;;5074475;28;20095;-77
2021/05/18 13:48:59;;;;;;;2.08;0.60;;;18.40;98.80;;;;;;5072801;28;20031;-82
2021/05/18 13:51:25;;;;;;;1.15;0.50;;;18.40;98.80;;;;;;5051178;28;20055;-78
2021/05/18 13:53:50;;;;;;;0.50;0.50;;;18.50;99.00;;;;;;5057938;28;20058;-82
2021/05/18 13:56:17;;;;;;;1.00;0.73;;;18.50;93.80;;;;;;5046926;28;20085;-79
2021/05/18 13:58:42;;;;;;;0.63;0.50;;;18.30;94.30;;;;;;5050498;28;20024;-78
2021/05/18 14:01:12;;;;;;;1.17;0.50;;;17.80;93.40;;;;;;5048507;28;20066;-78
2021/05/18 14:03:37;;;;;;;1.65;0.40;;;17.70;98.20;;;;;;5032583;28;20405;-77
2021/05/18 14:06:04;;;;;;;0.30;0.30;;;17.40;99.90;;;;;;5084151;28;20025;-78
2021/05/18 14:08:40;;;;;;;0.88;0.35;;;17.30;99.90;;;;;;5063386;28;20024;-78
2021/05/18 14:11:10;;;;;;;;;;;17.20;99.90;;;;;;5058713;28;20078;-78
2021/05/18 14:13:38;;;;;;;0.65;0.40;;;17.10;99.90;;;;;;5043633;28;19919;-77
2021/05/18 14:16:06;;;;;;;7.32;0.93;;;16.90;99.90;;;;;;5057377;28;20074;-79
2021/05/18 14:18:32;;;;;;;2.72;0.35;;;16.70;99.90;;;;;;5067002;28;20377;-78
2021/05/18 14:21:01;;;;;;;0.40;0.40;;;16.40;99.90;;;;;;5053029;28;20038;-77
2021/05/18 14:23:32;;;;;;;1.20;0.43;;;16.20;99.90;;;;;;5061768;28;20025;-77
2021/05/18 14:25:57;;;;;;;0.43;0.40;;;16.10;99.90;;;;;;5044984;28;20037;-77
2021/05/18 14:28:23;;;;;;;0.43;0.43;;;16.10;99.90;;;;;;5048252;28;20021;-79
2021/05/18 14:30:49;;;;;;;0.30;0.30;;;16.20;99.90;;;;;;5075397;28;20480;-78
2021/05/18 14:33:15;;;;;;;0.70;0.60;;;16.20;99.90;;;;;;5066220;28;20048;-77
2021/05/18 14:35:41;;;;;;;0.50;0.40;;;16.30;99.90;;;;;;5068284;28;20062;-76
2021/05/18 14:38:19;;;;;;;1.17;0.43;;;16.30;99.90;;;;;;5083949;28;20028;-77
2021/05/18 14:43:35;;;;;;;0.30;0.30;;;16.10;99.90;;;;;;5078094;28;20111;-77
2021/05/18 14:46:06;;;;;;;0.52;0.52;;;16.00;99.90;;;;;;5076580;28;20048;-78
2021/05/18 14:57:01;;;;;;;1.65;0.40;;;15.60;99.90;;;;;;5059507;28;20044;-77
2021/05/18 14:59:27;;;;;;;0.75;0.45;;;15.50;99.90;;;;;;5044697;28;20067;-76
2021/05/18 15:01:52;;;;;;;1.10;0.50;;;15.40;99.90;;;;;;5075583;28;20476;-78
2021/05/18 15:04:18;;;;;;;0.50;0.45;;;15.30;99.90;;;;;;5076066;28;20040;-80
2021/05/18 15:06:44;;;;;;;1.85;0.40;;;15.20;99.90;;;;;;5051470;28;20048;-78
2021/05/18 15:09:09;;;;;;;1.38;0.40;;;15.10;99.90;;;;;;5068868;28;20036;-78
2021/05/18 15:11:36;;;;;;;0.77;0.50;;;14.90;99.90;;;;;;5068486;28;20017;-79
2021/05/18 15:14:03;;;;;;;0.88;0.50;;;14.80;99.90;;;;;;5079483;28;20039;-78
2021/05/18 15:16:29;;;;;;;0.95;0.70;;;14.70;99.90;;;;;;5069174;28;20096;-79
2021/05/18 15:19:02;;;;;;;0.82;0.50;;;14.60;99.90;;;;;;5058687;28;20508;-79
2021/05/18 15:21:28;;;;;;;0.90;0.43;;;14.50;99.90;;;;;;5065745;28;20040;-79
2021/05/18 15:23:54;;;;;;;0.50;0.50;;;14.30;99.90;;;;;;5064569;28;20032;-78
2021/05/18 15:26:19;;;;;;;0.98;0.50;;;14.10;99.90;;;;;;5010984;28;20124;-78
2021/05/18 15:28:45;;;;;;;0.73;0.45;;;14.00;99.90;;;;;;5049794;28;20123;-78
2021/05/18 15:31:11;;;;;;;0.32;0.32;;;13.90;99.90;;;;;;5051548;28;20039;-79
2021/05/18 15:33:37;;;;;;;0.50;0.50;;;13.80;99.90;;;;;;5077990;28;20032;-79
2021/05/18 15:36:04;;;;;;;1.35;0.57;;;13.60;99.90;;;;;;5061182;28;20054;-77
2021/05/18 15:38:37;;;;;;;2.40;0.60;;;13.40;99.90;;;;;;5049400;28;20040;-79
2021/05/18 15:41:03;;;;;;;1.73;0.68;;;13.20;99.90;;;;;;5029901;28;20105;-79
2021/05/18 15:43:29;;;;;;;0.90;0.65;;;13.10;99.90;;;;;;5074219;28;20028;-78
2021/05/18 15:45:54;;;;;;;1.63;0.70;;;13.00;99.90;;;;;;5077984;28;20013;-78
2021/05/18 15:48:20;;;;;;;0.50;0.50;;;12.90;99.90;;;;;;5030424;28;20503;-79
2021/05/18 15:50:46;;;;;;;0.50;0.50;;;12.90;99.90;;;;;;5070726;28;20020;-77
2021/05/18 15:53:12;;;;;;;1.05;0.60;;;12.80;99.90;;;;;;5024831;28;567589;-79
2021/05/18 15:55:38;;;;;;;0.60;0.60;;;12.70;99.90;;;;;;5066793;28;20040;-80
2021/05/18 15:58:04;;;;;;;1.35;0.60;;;12.70;99.90;;;;;;5082951;28;20020;-77
2021/05/18 16:00:30;;;;;;;1.38;0.88;;;12.70;99.90;;;;;;5053005;28;20071;-79
2021/05/18 16:02:55;;;;;;;2.75;1.60;;;12.70;99.90;;;;;;5048394;28;20596;-79
2021/05/18 16:05:21;;;;;;;1.30;0.70;;;12.70;99.90;;;;;;5057131;28;20062;-77
2021/05/18 16:07:53;;;;;;;2.53;0.77;;;12.60;99.90;;;;;;5042958;28;20032;-78
2021/05/18 16:10:19;;;;;;;1.60;0.70;;;12.50;99.90;;;;;;5037404;28;20028;-78
2021/05/18 16:12:45;;;;;;;0.50;0.50;;;12.30;99.90;;;;;;5079155;28;20034;-78
2021/05/18 16:15:11;;;;;;;0.82;0.82;;;12.30;99.90;;;;;;5052704;28;20025;-79
2021/05/18 16:17:38;;;;;;;0.82;0.60;;;12.20;99.90;;;;;;5054000;28;20073;-79
2021/05/18 16:20:04;;;;;;;2.00;1.00;;;12.10;99.90;;;;;;5062399;28;20081;-78
2021/05/18 16:22:30;;;;;;;3.70;0.30;;;12.10;99.90;;;;;;5051494;28;20041;-79
2021/05/18 16:24:55;;;;;;;3.05;0.30;;;12.00;99.90;;;;;;5055747;28;20036;-77
2021/05/18 16:27:21;;;;;;;0.20;0.20;;;11.70;99.90;;;;;;5054475;28;20116;-81
2021/05/18 16:29:47;;;;;;;0.25;0.20;;;11.30;99.90;;;;;;5040523;28;20404;-82
2021/05/18 16:32:13;;;;;;;0.35;0.35;;;10.80;99.90;;;;;;5054733;28;20028;-78
2021/05/18 16:34:38;;;;;;;0.30;0.30;;;10.50;99.90;;;;;;5049274;28;20032;-80
2021/05/18 16:37:04;;;;;;;1.38;0.30;;;10.20;99.90;;;;;;5052572;28;20036;-78
2021/05/18 16:39:30;;;;;;;0.50;0.30;;;10.00;99.90;;;;;;5043842;28;20068;-79
2021/05/18 16:41:56;;;;;;;0.55;0.50;;;9.90;99.90;;;;;;5063933;28;20020;-80
2021/05/18 16:44:22;;;;;;;1.65;0.40;;;9.80;99.90;;;;;;5066562;28;20025;-78
2021/05/18 16:46:49;;;;;;;0.52;0.40;;;9.70;99.90;;;;;;5029789;28;20127;-78
2021/05/18 16:49:15;;;;;;;0.77;0.50;;;9.80;99.90;;;;;;5032340;28;20111;-79
2021/05/18 16:51:42;;;;;;;0.85;0.60;;;9.90;99.90;;;;;;5036263;28;20020;-77
2021/05/18 16:54:09;;;;;;;1.02;0.57;;;10.10;99.90;;;;;;5048997;28;20063;-80
2021/05/18 16:56:36;;;;;;;1.20;0.40;;;10.40;99.90;;;;;;5076575;28;20043;-80
2021/05/18 16:59:03;;;;;;;0.68;0.60;;;10.50;99.90;;;;;;5047333;28;20119;-80
2021/05/18 17:01:29;;;;;;;11.13;0.80;;;10.60;99.90;;;;;;5052123;28;20651;-80
2021/05/18 17:03:55;;;;;;;1.45;0.60;;;10.80;99.90;;;;;;5057631;28;20056;-80
2021/05/18 17:06:21;;;;;;;0.40;0.40;;;10.70;99.90;;;;;;5050663;28;20030;-80
2021/05/18 17:08:46;;;;;;;0.38;0.38;;;10.60;99.90;;;;;;5080362;28;20027;-81
2021/05/18 17:11:12;;;;;;;0.40;0.40;;;10.60;99.90;;;;;;5051919;28;20032;-80
2021/05/18 17:13:38;;;;;;;0.40;0.40;;;10.60;99.90;;;;;;5063546;28;20040;-80
2021/05/18 17:16:04;;;;;;;2.05;0.80;;;10.50;99.90;;;;;;5031940;28;20060;-80
2021/05/18 17:18:31;;;;;;;0.52;0.52;;;10.50;99.90;;;;;;5056870;28;20119;-80
2021/05/18 17:20:57;;;;;;;0.60;0.40;;;10.50;99.90;;;;;;5051204;28;20032;-80
2021/05/18 17:23:23;;;;;;;0.52;0.40;;;10.40;99.90;;;;;;5065724;28;20040;-80
2021/05/18 17:25:48;;;;;;;0.70;0.50;;;10.50;99.90;;;;;;5068506;28;20039;-80
2021/05/18 17:28:15;;;;;;;1.45;0.68;;;10.50;99.90;;;;;;5036707;28;20713;-80
2021/05/18 17:30:42;;;;;;;1.75;0.55;;;10.40;99.90;;;;;;5067672;28;20585;-80
2021/05/18 17:33:15;;;;;;;1.10;0.50;;;10.40;99.90;;;;;;5065417;28;20608;-80
2021/05/18 17:35:41;;;;;;;1.45;0.80;;;10.30;99.90;;;;;;5054121;28;20020;-80
2021/05/18 17:38:07;;;;;;;1.58;0.80;;;10.30;99.90;;;;;;5067025;28;20032;-80